createdAt,value
2022-09-24T00:01:39.241Z,100410.59
2022-09-24T00:04:12.404Z,100406.13
2022-09-24T00:06:48.329Z,100412.53
2022-09-24T00:09:19.495Z,100398.13
2022-09-24T00:11:46.704Z,100413.19
2022-09-24T00:14:14.123Z,100408.34
2022-09-24T00:16:42.749Z,100414.81
2022-09-24T00:19:10.755Z,100418.94
2022-09-24T00:21:38.740Z,100413.78
2022-09-24T00:24:33.559Z,100406.59
2022-09-24T00:27:02.929Z,100410.66
2022-09-24T00:29:33.935Z,100404.44
2022-09-24T00:32:01.607Z,100394.31
2022-09-24T00:34:29.364Z,100402.56
2022-09-24T00:36:56.435Z,100403.31
2022-09-24T00:39:23.399Z,100402.28
2022-09-24T00:41:50.339Z,100398.13
2022-09-24T00:44:44.923Z,100398.72
2022-09-24T00:47:35.268Z,100390.81
2022-09-24T00:50:33.906Z,100389.22
2022-09-24T00:53:31.989Z,100397.34
2022-09-24T00:56:01.782Z,100389.84
2022-09-24T00:58:31.420Z,100391.56
2022-09-24T01:01:06.533Z,100392.94
2022-09-24T01:03:40.850Z,100385.59
2022-09-24T01:06:09.191Z,100389.66
2022-09-24T01:08:36.396Z,100383.44
2022-09-24T01:11:36.770Z,100385.28
2022-09-24T01:14:11.146Z,100376.13
2022-09-24T01:17:01.281Z,100389.34
2022-09-24T01:20:25.430Z,100379.13
2022-09-24T01:23:26.137Z,100378.91
2022-09-24T01:26:19.974Z,100375.28
2022-09-24T01:29:32.594Z,100372.56
2022-09-24T01:32:12.766Z,100377.47
2022-09-24T01:35:07.646Z,100370.63
2022-09-24T01:37:38.154Z,100369.31
2022-09-24T01:40:07.602Z,100366.50
2022-09-24T01:42:38.317Z,100364.00
2022-09-24T01:45:06.511Z,100373.56
2022-09-24T01:47:40.675Z,100368.84
2022-09-24T01:50:12.262Z,100363.03
2022-09-24T01:52:55.659Z,100362.06
2022-09-24T01:55:27.435Z,100358.31
2022-09-24T01:58:02.113Z,100359.00
2022-09-24T02:00:29.334Z,100356.06
2022-09-24T02:03:30.135Z,100357.34
2022-09-24T02:06:14.555Z,100358.47
2022-09-24T02:08:47.057Z,100363.25
2022-09-24T02:11:23.475Z,100371.03
2022-09-24T02:14:07.873Z,100364.16
2022-09-24T02:16:41.491Z,100366.06
2022-09-24T02:19:15.130Z,100371.94
2022-09-24T02:21:44.476Z,100365.19
2022-09-24T02:24:30.501Z,100366.38
2022-09-24T02:26:57.517Z,100362.34
2022-09-24T02:29:24.929Z,100372.25
2022-09-24T02:31:55.762Z,100372.50
2022-09-24T02:34:33.218Z,100359.16
2022-09-24T02:37:11.135Z,100365.59
2022-09-24T02:39:38.480Z,100359.97
2022-09-24T02:42:07.839Z,100365.00
2022-09-24T02:44:38.940Z,100359.72
2022-09-24T02:47:06.763Z,100363.81
2022-09-24T02:49:33.949Z,100364.25
2022-09-24T02:52:00.970Z,100360.13
2022-09-24T02:54:28.095Z,100351.13
2022-09-24T02:56:55.256Z,100354.22
2022-09-24T02:59:22.657Z,100356.75
2022-09-24T03:01:50.366Z,100351.84
2022-09-24T03:04:17.720Z,100352.53
2022-09-24T03:06:44.745Z,100358.00
2022-09-24T03:09:14.736Z,100349.59
2022-09-24T03:11:41.800Z,100343.97
2022-09-24T03:14:08.885Z,100341.41
2022-09-24T03:16:35.973Z,100346.13
2022-09-24T03:19:03.187Z,100346.41
2022-09-24T03:21:30.184Z,100345.16
2022-09-24T03:23:57.274Z,100344.13
2022-09-24T03:26:24.373Z,100338.34
2022-09-24T03:28:51.351Z,100343.00
2022-09-24T03:31:18.512Z,100338.34
2022-09-24T03:33:49.048Z,100334.06
2022-09-24T03:36:26.119Z,100346.53
2022-09-24T03:38:56.614Z,100338.59
2022-09-24T03:41:28.199Z,100341.91
2022-09-24T03:43:56.096Z,100346.31
2022-09-24T03:46:24.977Z,100337.69
2022-09-24T03:48:52.215Z,100338.16
2022-09-24T03:51:20.193Z,100339.47
2022-09-24T03:53:48.348Z,100338.44
2022-09-24T03:56:16.062Z,100344.13
2022-09-24T03:58:47.660Z,100344.09
2022-09-24T04:01:20.688Z,100348.75
2022-09-24T04:03:49.400Z,100349.56
2022-09-24T04:06:18.634Z,100342.78
2022-09-24T04:08:47.808Z,100347.66
2022-09-24T04:11:14.744Z,100346.88
2022-09-24T04:13:41.664Z,100353.78
2022-09-24T04:16:08.660Z,100348.94
2022-09-24T04:18:39.274Z,100356.78
2022-09-24T04:21:06.862Z,100345.44
2022-09-24T04:23:34.080Z,100351.09
2022-09-24T04:26:02.411Z,100337.63
2022-09-24T04:28:30.662Z,100348.59
2022-09-24T04:30:58.203Z,100350.69
2022-09-24T04:33:25.336Z,100345.50
2022-09-24T04:35:52.376Z,100341.91
2022-09-24T04:38:21.383Z,100350.69
2022-09-24T04:40:49.155Z,100343.19
2022-09-24T04:43:17.518Z,100350.81
2022-09-24T04:45:45.056Z,100349.03
2022-09-24T04:48:12.490Z,100344.53
2022-09-24T04:50:43.420Z,100349.06
2022-09-24T04:53:12.893Z,100347.56
2022-09-24T04:55:41.702Z,100351.13
2022-09-24T04:58:09.525Z,100351.50
2022-09-24T05:00:36.663Z,100354.22
2022-09-24T05:03:03.788Z,100348.81
2022-09-24T05:05:32.823Z,100354.03
2022-09-24T05:08:01.612Z,100353.31
2022-09-24T05:10:31.557Z,100351.13
2022-09-24T05:12:59.125Z,100352.41
2022-09-24T05:15:26.254Z,100348.00
2022-09-24T05:17:53.246Z,100359.06
2022-09-24T05:20:20.476Z,100359.53
2022-09-24T05:22:49.841Z,100356.50
2022-09-24T05:25:20.511Z,100355.44
2022-09-24T05:27:53.372Z,100350.53
2022-09-24T05:30:22.723Z,100343.38
2022-09-24T05:32:52.322Z,100338.97
2022-09-24T05:35:21.569Z,100344.53
2022-09-24T05:37:49.698Z,100341.47
2022-09-24T05:40:35.762Z,100336.50
2022-09-24T05:43:04.335Z,100336.56
2022-09-24T05:45:31.788Z,100336.47
2022-09-24T05:48:02.082Z,100333.00
2022-09-24T05:50:29.213Z,100333.91
2022-09-24T05:52:56.318Z,100334.78
2022-09-24T05:55:23.224Z,100343.69
2022-09-24T05:57:50.505Z,100335.13
2022-09-24T06:00:17.455Z,100343.91
2022-09-24T06:02:44.505Z,100349.88
2022-09-24T06:05:12.923Z,100338.22
2022-09-24T06:07:39.955Z,100340.25
2022-09-24T06:10:07.596Z,100344.56
2022-09-24T06:12:35.049Z,100334.16
2022-09-24T06:15:02.957Z,100353.38
2022-09-24T06:17:31.959Z,100345.63
2022-09-24T06:19:58.887Z,100351.31
2022-09-24T06:22:28.521Z,100348.56
2022-09-24T06:24:56.150Z,100350.91
2022-09-24T06:27:23.121Z,100344.50
2022-09-24T06:29:50.041Z,100346.81
2022-09-24T06:32:17.675Z,100351.50
2022-09-24T06:34:44.587Z,100354.16
2022-09-24T06:37:11.654Z,100341.88
2022-09-24T06:39:38.787Z,100345.72
2022-09-24T06:42:07.037Z,100359.31
2022-09-24T06:44:34.662Z,100352.44
2022-09-24T06:47:01.991Z,100355.66
2022-09-24T06:49:33.781Z,100350.41
2022-09-24T06:52:02.018Z,100351.63
2022-09-24T06:54:29.033Z,100351.53
2022-09-24T06:56:56.032Z,100360.59
2022-09-24T06:59:22.975Z,100362.19
2022-09-24T07:01:49.951Z,100361.66
2022-09-24T07:04:16.979Z,100368.19
2022-09-24T07:07:02.957Z,100360.25
2022-09-24T07:09:29.921Z,100357.56
2022-09-24T07:12:01.499Z,100357.63
2022-09-24T07:14:28.433Z,100369.44
2022-09-24T07:16:55.355Z,100369.53
2022-09-24T07:19:22.293Z,100365.88
2022-09-24T07:21:49.207Z,100365.97
2022-09-24T07:24:16.125Z,100366.94
2022-09-24T07:26:43.059Z,100372.38
2022-09-24T07:29:10.081Z,100369.25
2022-09-24T07:31:37.403Z,100372.72
2022-09-24T07:34:08.666Z,100365.03
2022-09-24T07:36:35.935Z,100371.94
2022-09-24T07:39:02.939Z,100374.16
2022-09-24T07:41:30.615Z,100374.63
2022-09-24T07:43:57.591Z,100378.47
2022-09-24T07:46:24.927Z,100368.50
2022-09-24T07:48:58.281Z,100370.78
2022-09-24T07:51:29.582Z,100372.88
2022-09-24T07:53:57.551Z,100377.31
2022-09-24T07:56:25.435Z,100373.28
2022-09-24T07:58:53.717Z,100370.91
2022-09-24T08:01:21.103Z,100362.63
2022-09-24T08:03:48.335Z,100366.84
2022-09-24T08:06:15.426Z,100363.91
2022-09-24T08:08:43.565Z,100366.59
2022-09-24T08:11:17.104Z,100370.03
2022-09-24T08:13:45.194Z,100372.53
2022-09-24T08:16:13.024Z,100367.50
2022-09-24T08:18:40.401Z,100374.13
2022-09-24T08:21:11.943Z,100364.81
2022-09-24T08:23:40.196Z,100364.44
2022-09-24T08:26:08.600Z,100368.66
2022-09-24T08:28:36.599Z,100365.69
2022-09-24T08:31:10.002Z,100355.00
2022-09-24T08:33:38.260Z,100356.25
2022-09-24T08:36:09.404Z,100363.72
2022-09-24T08:38:36.512Z,100356.31
2022-09-24T08:41:27.167Z,100361.03
2022-09-24T08:44:10.931Z,100360.47
2022-09-24T08:47:04.874Z,100365.06
2022-09-24T08:49:45.437Z,100353.13
2022-09-24T08:52:24.686Z,100363.13
2022-09-24T08:54:53.622Z,100368.66
2022-09-24T08:57:21.878Z,100367.53
2022-09-24T08:59:53.337Z,100368.13
2022-09-24T09:02:53.448Z,100364.63
2022-09-24T09:05:49.650Z,100356.44
2022-09-24T09:08:54.612Z,100359.19
2022-09-24T09:11:20.332Z,100359.72
2022-09-24T09:14:01.065Z,100351.13
2022-09-24T09:16:31.495Z,100350.19
2022-09-24T09:19:06.940Z,100354.53
2022-09-24T09:21:52.730Z,100354.00
2022-09-24T09:24:26.938Z,100352.41
2022-09-24T09:26:56.753Z,100359.78
2022-09-24T09:29:28.142Z,100351.88
2022-09-24T09:32:38.554Z,100357.44
2022-09-24T09:35:29.215Z,100351.34
2022-09-24T09:38:23.427Z,100346.63
2022-09-24T09:41:20.232Z,100340.19
2022-09-24T09:43:47.244Z,100347.34
2022-09-24T09:46:26.171Z,100343.22
2022-09-24T09:49:07.066Z,100345.91
2022-09-24T09:51:41.116Z,100346.88
2022-09-24T09:54:08.378Z,100346.66
2022-09-24T09:56:49.783Z,100340.66
2022-09-24T09:59:28.857Z,100347.41
2022-09-24T10:01:57.603Z,100345.75
2022-09-24T10:04:39.641Z,100346.78
2022-09-24T10:07:16.231Z,100343.97
2022-09-24T10:09:45.269Z,100340.69
2022-09-24T10:12:22.295Z,100340.94
2022-09-24T10:15:06.194Z,100334.47
2022-09-24T10:17:39.385Z,100337.81
2022-09-24T10:20:26.122Z,100342.94
2022-09-24T10:23:13.133Z,100329.63
2022-09-24T10:25:40.249Z,100337.38
2022-09-24T10:28:28.521Z,100338.84
2022-09-24T10:31:01.765Z,100336.88
2022-09-24T10:33:38.876Z,100329.63
2022-09-24T10:36:28.798Z,100328.78
2022-09-24T10:39:07.658Z,100327.13
2022-09-24T10:41:35.934Z,100326.84
2022-09-24T10:44:13.986Z,100324.25
2022-09-24T10:47:27.230Z,100318.47
2022-09-24T10:50:25.302Z,100322.22
2022-09-24T10:53:38.817Z,100323.44
2022-09-24T10:56:18.460Z,100321.84
2022-09-24T10:59:19.133Z,100333.19
2022-09-24T11:02:04.710Z,100319.34
2022-09-24T11:04:44.161Z,100325.75
2022-09-24T11:07:45.251Z,100327.22
2022-09-24T11:11:00.986Z,100321.84
2022-09-24T11:14:04.292Z,100316.53
2022-09-24T11:17:03.292Z,100310.88
2022-09-24T11:19:51.480Z,100318.91
2022-09-24T11:22:56.513Z,100305.66
2022-09-24T11:25:56.626Z,100303.94
2022-09-24T11:29:02.817Z,100311.84
2022-09-24T11:32:05.130Z,100312.88
2022-09-24T11:35:25.912Z,100304.88
2022-09-24T11:38:08.229Z,100312.19
2022-09-24T11:41:21.503Z,100301.03
2022-09-24T11:44:21.747Z,100307.25
2022-09-24T11:47:03.057Z,100293.16
2022-09-24T11:50:02.018Z,100289.31
2022-09-24T11:53:02.923Z,100291.94
2022-09-24T11:55:53.701Z,100301.19
2022-09-24T11:59:00.259Z,100300.13
2022-09-24T12:01:33.931Z,100295.44
2022-09-24T12:04:15.073Z,100295.28
2022-09-24T12:07:02.908Z,100292.03
2022-09-24T12:09:41.202Z,100283.09
2022-09-24T12:12:27.706Z,100273.50
2022-09-24T12:15:19.347Z,100282.31
2022-09-24T12:18:08.614Z,100279.19
2022-09-24T12:20:55.016Z,100269.78
2022-09-24T12:23:29.375Z,100275.78
2022-09-24T12:26:00.133Z,100276.03
2022-09-24T12:29:09.802Z,100268.75
2022-09-24T12:32:19.670Z,100266.69
2022-09-24T12:35:00.519Z,100266.88
2022-09-24T12:37:38.713Z,100262.97
2022-09-24T12:40:54.674Z,100260.63
2022-09-24T12:43:58.189Z,100265.50
2022-09-24T12:46:40.287Z,100260.19
2022-09-24T12:49:36.806Z,100255.94
2022-09-24T12:52:43.335Z,100260.41
2022-09-24T12:55:26.769Z,100257.84
2022-09-24T12:58:06.267Z,100249.72
2022-09-24T13:00:42.564Z,100247.00
2022-09-24T13:03:44.605Z,100248.59
2022-09-24T13:06:37.372Z,100254.25
2022-09-24T13:09:31.119Z,100256.25
2022-09-24T13:12:15.727Z,100257.16
2022-09-24T13:14:58.394Z,100259.00
2022-09-24T13:17:25.437Z,100253.63
2022-09-24T13:20:05.006Z,100259.88
2022-09-24T13:22:35.991Z,100257.25
2022-09-24T13:25:08.587Z,100266.19
2022-09-24T13:27:39.778Z,100259.06
2022-09-24T13:30:12.482Z,100267.06
2022-09-24T13:33:00.707Z,100254.59
2022-09-24T13:35:35.016Z,100252.78
2022-09-24T13:38:17.038Z,100249.25
2022-09-24T13:40:56.837Z,100242.09
2022-09-24T13:43:59.605Z,100251.94
2022-09-24T13:46:28.160Z,100249.25
2022-09-24T13:49:13.756Z,100245.69
2022-09-24T13:51:43.079Z,100257.28
2022-09-24T13:54:36.884Z,100248.34
2022-09-24T13:57:23.589Z,100239.44
2022-09-24T14:00:01.560Z,100239.44
2022-09-24T14:02:38.491Z,100246.59
2022-09-24T14:05:15.198Z,100248.38
2022-09-24T14:07:43.269Z,100243.03
2022-09-24T14:10:15.003Z,100240.34
2022-09-24T14:12:42.021Z,100244.78
2022-09-24T14:15:18.239Z,100243.91
2022-09-24T14:17:59.055Z,100241.22
2022-09-24T14:20:32.247Z,100233.22
2022-09-24T14:22:59.257Z,100236.78
2022-09-24T14:25:32.102Z,100238.56
2022-09-24T14:28:02.405Z,100234.13
2022-09-24T14:30:32.369Z,100222.47
2022-09-24T14:33:16.056Z,100221.59
2022-09-24T14:35:49.522Z,100233.22
2022-09-24T14:38:26.303Z,100224.31
2022-09-24T14:41:03.386Z,100227.88
2022-09-24T14:43:45.183Z,100224.28
2022-09-24T14:46:41.045Z,100222.50
2022-09-24T14:49:44.433Z,100221.63
2022-09-24T14:52:28.367Z,100219.84
2022-09-24T14:55:20.643Z,100222.53
2022-09-24T14:57:55.221Z,100226.09
2022-09-24T15:00:27.609Z,100223.41
2022-09-24T15:03:27.256Z,100219.84
2022-09-24T15:06:13.116Z,100217.19
2022-09-24T15:08:41.519Z,100213.63
2022-09-24T15:11:19.739Z,100215.41
2022-09-24T15:13:57.220Z,100210.97
2022-09-24T15:16:36.193Z,100210.06
2022-09-24T15:19:25.582Z,100210.94
2022-09-24T15:21:56.712Z,100212.72
2022-09-24T15:24:25.039Z,100209.16
2022-09-24T15:27:05.489Z,100215.34
2022-09-24T15:29:32.849Z,100217.13
2022-09-24T15:31:59.861Z,100213.53
2022-09-24T15:34:28.425Z,100213.56
2022-09-24T15:36:59.453Z,100212.59
2022-09-24T15:39:28.221Z,100220.56
2022-09-24T15:41:55.418Z,100217.84
2022-09-24T15:44:31.334Z,100213.38
2022-09-24T15:47:00.668Z,100215.16
2022-09-24T15:49:27.632Z,100215.13
2022-09-24T15:52:13.462Z,100214.00
2022-09-24T15:54:40.940Z,100216.69
2022-09-24T15:57:12.121Z,100207.84
2022-09-24T15:59:39.288Z,100211.34
2022-09-24T16:02:17.804Z,100214.84
2022-09-24T16:04:45.379Z,100215.69
2022-09-24T16:07:12.423Z,100212.91
2022-09-24T16:09:39.563Z,100217.28
2022-09-24T16:12:07.103Z,100215.47
2022-09-24T16:14:34.106Z,100221.59
2022-09-24T16:17:01.010Z,100213.53
2022-09-24T16:19:29.551Z,100215.22
2022-09-24T16:21:56.609Z,100214.91
2022-09-24T16:24:23.716Z,100222.84
2022-09-24T16:26:50.667Z,100220.09
2022-09-24T16:29:18.185Z,100225.41
2022-09-24T16:31:45.745Z,100219.88
2022-09-24T16:34:12.826Z,100221.56
2022-09-24T16:36:39.743Z,100218.72
2022-09-24T16:39:06.743Z,100226.72
2022-09-24T16:41:34.632Z,100222.19
2022-09-24T16:44:02.334Z,100222.00
2022-09-24T16:46:29.646Z,100218.38
2022-09-24T16:48:56.713Z,100221.94
2022-09-24T16:51:24.050Z,100224.47
2022-09-24T16:53:55.676Z,100224.25
2022-09-24T16:56:23.373Z,100227.91
2022-09-24T16:58:51.159Z,100224.22
2022-09-24T17:01:20.926Z,100220.03
2022-09-24T17:03:56.416Z,100215.50
2022-09-24T17:06:30.190Z,100223.94
2022-09-24T17:09:15.695Z,100225.59
2022-09-24T17:11:42.781Z,100215.91
2022-09-24T17:14:13.562Z,100222.81
2022-09-24T17:16:41.619Z,100227.31
2022-09-24T17:19:11.801Z,100239.66
2022-09-24T17:21:42.070Z,100226.22
2022-09-24T17:24:09.821Z,100232.53
2022-09-24T17:26:38.491Z,100228.81
2022-09-24T17:29:05.708Z,100227.06
2022-09-24T17:31:32.964Z,100226.94
2022-09-24T17:34:07.055Z,100227.69
2022-09-24T17:36:35.362Z,100224.97
2022-09-24T17:39:03.199Z,100228.47
2022-09-24T17:41:30.513Z,100226.84
2022-09-24T17:44:01.267Z,100232.06
2022-09-24T17:46:32.052Z,100234.66
2022-09-24T17:49:00.646Z,100236.34
2022-09-24T17:51:32.639Z,100232.59
2022-09-24T17:54:02.407Z,100233.38
2022-09-24T17:56:32.442Z,100233.38
2022-09-24T17:59:00.449Z,100235.84
2022-09-24T18:01:33.702Z,100239.09
2022-09-24T18:04:00.941Z,100238.16
2022-09-24T18:06:32.857Z,100239.16
2022-09-24T18:09:01.532Z,100242.50
2022-09-24T18:11:33.233Z,100250.44
2022-09-24T18:14:02.786Z,100241.97
2022-09-24T18:16:34.175Z,100243.47
2022-09-24T18:19:02.990Z,100246.16
2022-09-24T18:21:30.749Z,100244.13
2022-09-24T18:24:00.589Z,100249.22
2022-09-24T18:26:35.500Z,100243.41
2022-09-24T18:29:22.795Z,100237.91
2022-09-24T18:31:51.680Z,100243.78
2022-09-24T18:34:18.830Z,100240.22
2022-09-24T18:36:46.158Z,100242.03
2022-09-24T18:39:21.873Z,100240.00
2022-09-24T18:41:51.073Z,100239.97
2022-09-24T18:44:19.768Z,100249.84
2022-09-24T18:46:47.066Z,100242.88
2022-09-24T18:49:14.019Z,100252.63
2022-09-24T18:51:40.952Z,100249.63
2022-09-24T18:54:12.530Z,100254.16
2022-09-24T18:56:39.743Z,100257.50
2022-09-24T18:59:19.501Z,100258.19
2022-09-24T19:01:48.638Z,100258.28
2022-09-24T19:04:17.375Z,100256.84
2022-09-24T19:06:48.102Z,100253.97
2022-09-24T19:09:17.511Z,100260.75
2022-09-24T19:11:45.524Z,100257.97
2022-09-24T19:14:14.964Z,100264.25
2022-09-24T19:16:41.876Z,100255.00
2022-09-24T19:19:09.850Z,100263.16
2022-09-24T19:21:38.318Z,100265.78
2022-09-24T19:24:06.948Z,100255.38
2022-09-24T19:26:36.388Z,100258.94
2022-09-24T19:29:04.814Z,100258.13
2022-09-24T19:31:36.607Z,100259.69
2022-09-24T19:34:06.209Z,100259.56
2022-09-24T19:36:42.750Z,100266.66
2022-09-24T19:39:18.201Z,100265.00
2022-09-24T19:41:46.268Z,100268.53
2022-09-24T19:44:13.824Z,100273.44
2022-09-24T19:46:41.404Z,100265.53
2022-09-24T19:49:08.761Z,100263.84
2022-09-24T19:51:37.290Z,100264.88
2022-09-24T19:54:07.328Z,100268.06
2022-09-24T19:56:35.961Z,100266.41
2022-09-24T19:59:04.116Z,100267.94
2022-09-24T20:01:33.716Z,100256.53
2022-09-24T20:04:05.353Z,100252.16
2022-09-24T20:06:34.290Z,100258.44
2022-09-24T20:09:01.305Z,100258.19
2022-09-24T20:11:32.213Z,100253.81
2022-09-24T20:13:59.623Z,100248.47
2022-09-24T20:16:28.410Z,100265.41
2022-09-24T20:18:59.906Z,100249.28
2022-09-24T20:21:32.102Z,100252.69
2022-09-24T20:23:59.297Z,100243.19
2022-09-24T20:26:45.532Z,100245.13
2022-09-24T20:29:14.583Z,100251.41
2022-09-24T20:31:51.915Z,100254.78
2022-09-24T20:34:22.036Z,100243.16
2022-09-24T20:36:49.481Z,100246.00
2022-09-24T20:39:16.814Z,100244.91
2022-09-24T20:41:44.161Z,100236.13
2022-09-24T20:44:11.109Z,100243.16
2022-09-24T20:46:39.241Z,100240.81
2022-09-24T20:49:06.399Z,100244.28
2022-09-24T20:51:37.255Z,100241.72
2022-09-24T20:54:04.648Z,100244.22
2022-09-24T20:56:31.762Z,100243.22
2022-09-24T20:59:00.947Z,100245.13
2022-09-24T21:01:27.988Z,100250.09
2022-09-24T21:03:55.065Z,100244.88
2022-09-24T21:06:23.066Z,100247.56
2022-09-24T21:08:51.476Z,100244.81
2022-09-24T21:11:22.262Z,100251.63
2022-09-24T21:13:52.410Z,100246.34
2022-09-24T21:16:25.664Z,100241.69
2022-09-24T21:18:56.436Z,100239.88
2022-09-24T21:21:35.260Z,100245.31
2022-09-24T21:24:02.755Z,100250.75
2022-09-24T21:26:33.189Z,100255.31
2022-09-24T21:29:09.460Z,100250.63
2022-09-24T21:31:39.205Z,100263.91
2022-09-24T21:34:07.603Z,100259.03
2022-09-24T21:36:44.700Z,100260.56
2022-09-24T21:39:23.214Z,100249.66
2022-09-24T21:41:53.052Z,100252.25
2022-09-24T21:44:21.353Z,100248.28
2022-09-24T21:46:50.974Z,100252.88
2022-09-24T21:49:19.479Z,100247.66
2022-09-24T21:51:46.913Z,100249.91
2022-09-24T21:54:17.139Z,100245.66
2022-09-24T21:56:45.804Z,100250.97
2022-09-24T21:59:32.141Z,100251.75
2022-09-24T22:01:59.519Z,100237.38
2022-09-24T22:04:27.721Z,100250.94
2022-09-24T22:06:54.675Z,100244.69
2022-09-24T22:09:22.495Z,100245.22
2022-09-24T22:11:51.405Z,100242.13
2022-09-24T22:14:18.498Z,100248.69
2022-09-24T22:16:45.527Z,100241.19
2022-09-24T22:19:13.088Z,100247.38
2022-09-24T22:21:40.587Z,100249.75
2022-09-24T22:24:07.529Z,100250.75
2022-09-24T22:26:34.497Z,100255.81
2022-09-24T22:29:02.099Z,100256.50
2022-09-24T22:31:29.142Z,100252.72
2022-09-24T22:34:14.681Z,100261.66
2022-09-24T22:36:41.769Z,100258.91
2022-09-24T22:39:09.471Z,100248.78
2022-09-24T22:41:40.131Z,100250.34
2022-09-24T22:44:07.616Z,100244.84
2022-09-24T22:46:36.453Z,100251.69
2022-09-24T22:49:05.844Z,100244.44
2022-09-24T22:51:33.719Z,100238.81
2022-09-24T22:54:00.898Z,100238.16
2022-09-24T22:56:28.661Z,100234.44
2022-09-24T22:59:00.315Z,100235.13
2022-09-24T23:01:31.795Z,100235.03
2022-09-24T23:03:59.717Z,100234.09
2022-09-24T23:06:27.769Z,100228.78
2022-09-24T23:08:56.077Z,100222.31
2022-09-24T23:11:27.739Z,100229.41
2022-09-24T23:14:00.644Z,100228.38
2022-09-24T23:16:31.690Z,100230.91
2022-09-24T23:19:02.214Z,100206.94
2022-09-24T23:21:31.619Z,100229.59
2022-09-24T23:24:03.047Z,100222.22
2022-09-24T23:26:31.469Z,100224.63
2022-09-24T23:28:59.694Z,100227.59
2022-09-24T23:31:34.380Z,100219.94
2022-09-24T23:34:02.781Z,100221.78
2022-09-24T23:36:32.211Z,100230.91
2022-09-24T23:39:01.219Z,100222.63
2022-09-24T23:41:29.984Z,100221.88
2022-09-24T23:43:57.128Z,100229.53
2022-09-24T23:46:24.165Z,100227.13
2022-09-24T23:48:51.317Z,100230.47
2022-09-24T23:51:18.308Z,100218.78
2022-09-24T23:53:46.158Z,100211.59
2022-09-24T23:56:13.726Z,100214.41
2022-09-24T23:58:42.140Z,100216.28
